Time;durP1;ratioP1;P1;durP2;ratioP2;P2;SDS_P1;SDS_P2;PMS_P1;PMS_P2;Temp;Humidity;BMP_temperature;BMP_pressure;BME280_temperature;BME280_humidity;BME280_pressure;Samples;Min_cycle;Max_cycle;Signal;HPM_P1;HPM_P2
2023/12/24 00:01:44;;;;;;;6.97;1.27;;;;;;;8.70;100.00;100567.69;5016624;28;20403;-73
2023/12/24 00:04:11;;;;;;;8.98;1.50;;;;;;;8.82;100.00;100570.84;5011872;28;20049;-73
2023/12/24 00:06:36;;;;;;;9.23;1.40;;;;;;;8.82;100.00;100573.44;5010611;28;20033;-73
2023/12/24 00:09:01;;;;;;;11.73;1.80;;;;;;;8.81;100.00;100576.97;5008806;28;20022;-74
2023/12/24 00:11:27;;;;;;;4.70;1.40;;;;;;;8.69;100.00;100567.84;5013697;28;20045;-73
2023/12/24 00:13:52;;;;;;;8.48;1.50;;;;;;;8.82;100.00;100565.69;5010939;28;20080;-72
2023/12/24 00:16:18;;;;;;;8.35;1.40;;;;;;;8.70;100.00;100565.13;5011028;28;20041;-73
2023/12/24 00:18:43;;;;;;;10.20;1.42;;;;;;;8.76;100.00;100556.75;5016149;28;20083;-73
2023/12/24 00:21:12;;;;;;;6.50;1.42;;;;;;;8.89;100.00;100563.28;5008531;28;20034;-73
2023/12/24 00:23:37;;;;;;;10.30;2.17;;;;;;;8.75;100.00;100552.53;5006112;28;20026;-73
2023/12/24 00:26:03;;;;;;;7.47;1.70;;;;;;;8.85;100.00;100560.19;5009053;28;20042;-73
2023/12/24 00:28:28;;;;;;;8.43;2.05;;;;;;;8.75;100.00;100557.69;5010210;28;20034;-73
2023/12/24 00:30:54;;;;;;;9.52;1.73;;;;;;;8.83;100.00;100556.16;5013654;28;20087;-73
2023/12/24 00:33:20;;;;;;;11.27;2.03;;;;;;;8.92;100.00;100560.41;5009231;28;20030;-73
2023/12/24 00:35:45;;;;;;;7.30;1.50;;;;;;;8.92;100.00;100552.66;5011752;28;20443;-73
2023/12/24 00:38:11;;;;;;;5.78;1.25;;;;;;;8.98;100.00;100554.63;5014097;28;20084;-74
2023/12/24 00:40:38;;;;;;;5.93;1.50;;;;;;;8.98;100.00;100562.41;5009749;28;20129;-73
2023/12/24 00:43:03;;;;;;;5.65;1.50;;;;;;;8.87;100.00;100560.06;5010175;28;20392;-73
2023/12/24 00:45:30;;;;;;;7.30;1.40;;;;;;;8.89;100.00;100565.88;5008569;28;20026;-72
2023/12/24 00:47:55;;;;;;;5.82;1.38;;;;;;;8.83;100.00;100572.47;5013884;28;20038;-73
2023/12/24 00:50:21;;;;;;;3.80;1.17;;;;;;;8.87;100.00;100581.56;5014673;28;20034;-73
2023/12/24 00:52:46;;;;;;;7.68;1.50;;;;;;;8.81;100.00;100569.22;5010479;28;20030;-72
2023/12/24 00:55:12;;;;;;;5.50;1.20;;;;;;;8.79;100.00;100578.09;5017717;28;20091;-73
2023/12/24 00:57:37;;;;;;;8.05;1.40;;;;;;;8.81;100.00;100565.84;4994887;28;20076;-73
2023/12/24 01:00:05;;;;;;;6.47;1.58;;;;;;;8.74;100.00;100565.63;5011585;28;21190;-73
2023/12/24 01:02:30;;;;;;;10.20;1.55;;;;;;;8.76;100.00;100556.75;5011423;28;20056;-73
2023/12/24 01:04:55;;;;;;;6.15;1.50;;;;;;;8.70;100.00;100566.88;5009694;28;20068;-73
2023/12/24 01:07:21;;;;;;;6.22;1.00;;;;;;;8.79;100.00;100562.59;4997550;28;20037;-73
2023/12/24 01:09:46;;;;;;;5.57;1.20;;;;;;;8.81;100.00;100552.91;5008085;28;20083;-74
2023/12/24 01:12:12;;;;;;;2.72;1.00;;;;;;;8.82;100.00;100570.84;5012336;28;20025;-74
2023/12/24 01:14:37;;;;;;;5.53;1.10;;;;;;;8.95;100.00;100567.88;5010630;28;20048;-73
2023/12/24 01:17:03;;;;;;;5.72;3.30;;;;;;;8.87;100.00;100553.13;5014877;28;20037;-73
2023/12/24 01:19:28;;;;;;;4.88;0.90;;;;;;;8.88;100.00;100546.97;4993516;28;20037;-73
2023/12/24 01:21:55;;;;;;;4.80;1.08;;;;;;;8.89;100.00;100543.44;5011755;28;20026;-73
2023/12/24 01:24:21;;;;;;;6.13;0.95;;;;;;;8.99;100.00;100540.75;4996682;28;20038;-73
2023/12/24 01:26:46;;;;;;;4.88;0.82;;;;;;;8.95;100.00;100540.25;5011165;28;20030;-73
2023/12/24 01:29:12;;;;;;;4.95;1.10;;;;;;;8.96;100.00;100528.13;5010206;28;20095;-74
2023/12/24 01:31:39;;;;;;;7.32;1.38;;;;;;;8.90;100.00;100529.53;5013524;28;20035;-73
2023/12/24 01:34:04;;;;;;;5.80;0.90;;;;;;;8.95;100.00;100522.13;5011178;28;20404;-73
2023/12/24 01:36:30;;;;;;;8.90;1.08;;;;;;;8.90;100.00;100513.22;5014739;28;20042;-73
2023/12/24 01:38:55;;;;;;;8.55;1.33;;;;;;;8.98;100.00;100502.09;5010054;28;20032;-73
2023/12/24 01:41:21;;;;;;;6.38;0.80;;;;;;;9.09;100.00;100499.25;5001286;28;20037;-74
2023/12/24 01:43:47;;;;;;;4.95;0.90;;;;;;;9.10;100.00;100482.78;5008780;28;20037;-73
2023/12/24 01:46:19;;;;;;;6.32;1.10;;;;;;;9.02;100.00;100472.38;5011689;28;20460;-74
2023/12/24 01:48:46;;;;;;;5.80;0.60;;;;;;;9.00;100.00;100469.16;5009239;28;20085;-73
2023/12/24 01:51:12;;;;;;;7.38;0.90;;;;;;;9.02;100.00;100451.69;5005347;28;20723;-73
2023/12/24 01:53:38;;;;;;;6.50;0.80;;;;;;;9.02;100.00;100431.81;5010933;28;20037;-73
2023/12/24 01:56:05;;;;;;;3.97;0.70;;;;;;;8.98;100.00;100422.75;5005935;28;20129;-73
2023/12/24 01:58:31;;;;;;;9.02;0.90;;;;;;;9.00;100.00;100438.91;5006282;28;20389;-73
2023/12/24 02:00:57;;;;;;;5.22;1.13;;;;;;;9.02;100.00;100442.16;4988439;28;20943;-73
2023/12/24 02:03:23;;;;;;;3.10;0.98;;;;;;;9.00;100.00;100445.88;5008955;28;20099;-73
2023/12/24 02:05:50;;;;;;;5.25;1.00;;;;;;;8.90;100.00;100451.97;5006965;28;20507;-73
2023/12/24 02:08:18;;;;;;;3.55;0.82;;;;;;;8.89;100.00;100457.28;5027468;28;20048;-73
2023/12/24 02:10:44;;;;;;;1.73;0.68;;;;;;;8.93;100.00;100471.56;5008034;28;20066;-73
2023/12/24 02:13:12;;;;;;;2.58;0.70;;;;;;;8.90;100.00;100457.13;5006240;28;20041;-74
2023/12/24 02:16:28;;;;;;;3.10;0.88;;;;;;;8.94;100.00;100466.19;5002946;28;20161;-73
2023/12/24 02:18:53;;;;;;;3.05;0.80;;;;;;;9.08;100.00;100464.84;5008913;28;20033;-73
2023/12/24 02:21:19;;;;;;;4.60;0.85;;;;;;;8.98;100.00;100468.50;5007898;28;20087;-73
2023/12/24 02:23:44;;;;;;;5.25;1.00;;;;;;;8.99;100.00;100462.38;5008700;28;20044;-73
2023/12/24 02:26:23;;;;;;;7.78;0.80;;;;;;;9.01;100.00;100456.06;5007940;28;20389;-74
2023/12/24 02:28:53;;;;;;;3.55;0.77;;;;;;;8.88;100.00;100464.22;5004763;28;20037;-73
2023/12/24 02:31:21;;;;;;;3.72;0.95;;;;;;;8.93;100.00;100463.78;5008820;28;20500;-74
2023/12/24 02:33:50;;;;;;;2.58;1.00;;;;;;;8.83;100.00;100466.47;5011495;28;20030;-73
2023/12/24 02:36:17;;;;;;;4.15;1.00;;;;;;;8.81;100.00;100455.47;4993755;28;20048;-73
2023/12/24 02:38:42;;;;;;;3.13;0.93;;;;;;;8.74;100.00;100451.88;5010024;28;20137;-73
2023/12/24 02:41:08;;;;;;;4.18;2.05;;;;;;;8.66;100.00;100441.47;5010385;28;20034;-73
2023/12/24 02:43:34;;;;;;;6.95;1.23;;;;;;;8.68;100.00;100444.72;5012131;28;20037;-73
2023/12/24 02:46:01;;;;;;;3.35;1.10;;;;;;;8.68;100.00;100436.97;5010193;28;20176;-73
2023/12/24 02:48:26;;;;;;;3.72;1.10;;;;;;;8.59;100.00;100438.69;5014720;28;20137;-73
2023/12/24 02:50:52;;;;;;;3.45;0.95;;;;;;;8.63;100.00;100432.25;5011857;28;20042;-74
2023/12/24 02:53:19;;;;;;;2.30;1.10;;;;;;;8.58;100.00;100437.06;5018125;28;20025;-73
2023/12/24 02:55:44;;;;;;;2.45;0.95;;;;;;;8.64;100.00;100435.66;5011086;28;20041;-74
2023/12/24 02:58:11;;;;;;;1.58;0.88;;;;;;;8.57;100.00;100438.03;5012651;28;20026;-73
2023/12/24 03:00:36;;;;;;;3.63;0.70;;;;;;;8.52;100.00;100427.34;5010065;28;20054;-73
2023/12/24 03:03:02;;;;;;;3.15;0.60;;;;;;;8.60;100.00;100437.72;5007416;28;20038;-74
2023/12/24 03:05:27;;;;;;;0.68;0.60;;;;;;;8.53;100.00;100423.78;5016694;28;20120;-74
2023/12/24 03:07:53;;;;;;;2.35;0.65;;;;;;;8.50;100.00;100432.66;5010484;28;20046;-73
2023/12/24 03:10:18;;;;;;;0.93;0.60;;;;;;;8.51;100.00;100418.78;5009335;28;20045;-74
2023/12/24 03:12:43;;;;;;;1.25;0.63;;;;;;;8.52;100.00;100417.00;4995472;28;20033;-73
2023/12/24 03:15:11;;;;;;;1.05;0.80;;;;;;;8.49;100.00;100427.63;5005177;28;20042;-74
2023/12/24 03:17:37;;;;;;;1.15;0.70;;;;;;;8.51;100.00;100415.38;5014400;28;20044;-74
2023/12/24 03:20:02;;;;;;;1.65;0.88;;;;;;;8.52;100.00;100404.88;5013371;28;20046;-74
2023/12/24 03:22:28;;;;;;;2.10;0.60;;;;;;;8.58;100.00;100404.28;5016006;28;20052;-74
2023/12/24 03:24:53;;;;;;;4.20;0.55;;;;;;;8.57;100.00;100400.09;4993495;28;20507;-74
2023/12/24 03:27:19;;;;;;;0.93;0.60;;;;;;;8.56;100.00;100397.66;5022093;28;20049;-74
2023/12/24 03:29:44;;;;;;;2.05;0.55;;;;;;;8.57;100.00;100391.53;5006808;28;20493;-75
2023/12/24 03:32:10;;;;;;;0.70;0.50;;;;;;;8.55;100.00;100396.00;5018080;28;20515;-75
2023/12/24 03:34:35;;;;;;;2.20;0.55;;;;;;;8.50;100.00;100388.72;4993068;28;20030;-75
2023/12/24 03:37:01;;;;;;;1.88;0.77;;;;;;;8.58;100.00;100393.13;5012748;28;20028;-75
2023/12/24 03:39:26;;;;;;;0.98;0.63;;;;;;;8.51;100.00;100387.78;5009165;28;20030;-74
2023/12/24 03:41:52;;;;;;;0.88;0.63;;;;;;;8.49;100.00;100394.03;5009228;28;20034;-74
2023/12/24 03:44:17;;;;;;;0.57;0.40;;;;;;;8.57;100.00;100381.19;5008700;28;20033;-74
2023/12/24 03:46:44;;;;;;;1.20;0.60;;;;;;;8.53;100.00;100380.69;4996071;28;20057;-75
2023/12/24 03:49:10;;;;;;;1.75;0.85;;;;;;;8.47;100.00;100375.28;5010819;28;20041;-74
2023/12/24 03:51:36;;;;;;;2.03;0.40;;;;;;;8.51;100.00;100382.59;5026699;28;20048;-75
2023/12/24 03:54:01;;;;;;;2.33;1.00;;;;;;;8.58;100.00;100373.25;5012694;28;20030;-74
2023/12/24 03:56:27;;;;;;;2.88;0.60;;;;;;;8.51;100.00;100376.59;5005660;28;20061;-74
2023/12/24 03:58:52;;;;;;;1.83;0.63;;;;;;;8.54;100.00;100371.94;4995783;28;20030;-74
2023/12/24 04:01:27;;;;;;;2.40;0.45;;;;;;;8.58;100.00;100364.69;5011505;28;20041;-75
2023/12/24 04:03:52;;;;;;;0.40;0.40;;;;;;;8.54;100.00;100358.22;5005770;28;20044;-74
2023/12/24 04:06:18;;;;;;;2.53;0.60;;;;;;;8.57;100.00;100365.69;4994269;28;20041;-74
2023/12/24 04:08:43;;;;;;;0.35;0.35;;;;;;;8.59;100.00;100363.75;5005655;28;20068;-74
2023/12/24 04:11:12;;;;;;;0.88;0.50;;;;;;;8.59;100.00;100363.75;4997525;28;20037;-76
2023/12/24 04:13:39;;;;;;;2.50;0.43;;;;;;;8.60;100.00;100360.19;5006447;28;22004;-74
2023/12/24 04:16:05;;;;;;;3.40;0.70;;;;;;;8.61;100.00;100356.66;4992543;28;20045;-73
2023/12/24 04:18:30;;;;;;;0.73;0.55;;;;;;;8.65;100.00;100333.91;5007052;28;20037;-74
2023/12/24 04:20:56;;;;;;;2.65;1.10;;;;;;;8.64;100.00;100350.34;5009096;28;20034;-74
2023/12/24 04:23:21;;;;;;;0.70;0.50;;;;;;;8.62;100.00;100352.28;5011040;28;20117;-74
2023/12/24 04:25:47;;;;;;;0.55;0.40;;;;;;;8.71;100.00;100347.00;5015844;28;20060;-74
2023/12/24 04:28:12;;;;;;;0.55;0.50;;;;;;;8.65;100.00;100341.66;5008443;28;20448;-74
2023/12/24 04:30:38;;;;;;;0.70;0.70;;;;;;;8.65;100.00;100346.81;5015282;28;20623;-74
2023/12/24 04:33:04;;;;;;;1.25;0.47;;;;;;;8.66;100.00;100338.09;5007917;28;20084;-74
2023/12/24 04:35:29;;;;;;;1.85;0.70;;;;;;;8.66;100.00;100340.66;5014396;28;20752;-74
2023/12/24 04:37:55;;;;;;;3.83;0.77;;;;;;;8.63;100.00;100339.22;5013343;28;20092;-74
2023/12/24 04:40:22;;;;;;;1.50;0.60;;;;;;;8.66;100.00;100346.63;4996822;28;20113;-75
2023/12/24 04:42:47;;;;;;;1.52;0.50;;;;;;;8.65;100.00;100339.88;5013018;28;20029;-74
2023/12/24 04:45:13;;;;;;;1.52;0.80;;;;;;;8.68;100.00;100362.00;5011406;28;20045;-74
2023/12/24 04:47:39;;;;;;;1.20;0.40;;;;;;;8.65;100.00;100336.47;4994387;28;20041;-73
2023/12/24 04:50:05;;;;;;;0.93;0.50;;;;;;;8.63;100.00;100338.41;5012698;28;20042;-74
2023/12/24 04:52:35;;;;;;;0.93;0.47;;;;;;;8.69;100.00;100341.16;5006404;28;20037;-74
2023/12/24 04:55:05;;;;;;;0.30;0.30;;;;;;;8.71;100.00;100334.06;5011493;28;20111;-75
2023/12/24 04:57:31;;;;;;;1.80;0.73;;;;;;;8.70;100.00;100331.63;5003471;28;20115;-74
2023/12/24 04:59:57;;;;;;;2.03;0.50;;;;;;;8.66;100.00;100325.16;5013481;28;20041;-73
2023/12/24 05:02:22;;;;;;;3.13;1.05;;;;;;;8.64;100.00;100332.25;5012294;28;20044;-73
2023/12/24 05:04:49;;;;;;;0.43;0.43;;;;;;;8.63;100.00;100328.06;5010151;28;20039;-73
2023/12/24 05:07:16;;;;;;;0.22;0.22;;;;;;;8.58;100.00;100325.94;5011480;28;20052;-74
2023/12/24 05:09:42;;;;;;;0.80;0.45;;;;;;;8.67;100.00;100319.03;5008304;28;20493;-73
2023/12/24 05:12:08;;;;;;;0.80;0.43;;;;;;;8.65;100.00;100315.81;4996312;28;20022;-74
2023/12/24 05:14:34;;;;;;;1.33;0.40;;;;;;;8.69;100.00;100328.25;5012614;28;20030;-74
2023/12/24 05:17:00;;;;;;;1.00;0.50;;;;;;;8.64;100.00;100317.56;5010741;28;20041;-73
2023/12/24 05:19:26;;;;;;;0.47;0.40;;;;;;;8.61;100.00;100323.06;4995527;28;20483;-74
2023/12/24 05:21:51;;;;;;;2.38;0.50;;;;;;;8.53;100.00;100321.25;4999288;28;20157;-75
2023/12/24 05:24:16;;;;;;;1.02;0.57;;;;;;;8.53;100.00;100320.41;4996424;28;20057;-75
2023/12/24 05:26:42;;;;;;;0.40;0.40;;;;;;;8.55;100.00;100316.72;5013445;28;20039;-76
2023/12/24 05:29:07;;;;;;;1.10;0.60;;;;;;;8.59;100.00;100322.41;5013741;28;20476;-75
2023/12/24 05:31:38;;;;;;;0.75;0.60;;;;;;;8.62;100.00;100321.28;5016875;28;20493;-75
2023/12/24 05:34:03;;;;;;;1.23;0.50;;;;;;;8.55;100.00;100323.66;5008019;28;20037;-75
2023/12/24 05:36:32;;;;;;;0.70;0.70;;;;;;;8.60;100.00;100321.41;5013314;28;20041;-75
2023/12/24 05:38:58;;;;;;;0.63;0.40;;;;;;;8.60;100.00;100312.88;5014551;28;20022;-73
2023/12/24 05:41:23;;;;;;;2.22;0.50;;;;;;;8.58;100.00;100307.84;5013103;28;20034;-75
2023/12/24 05:43:49;;;;;;;0.73;0.70;;;;;;;8.58;100.00;100310.44;5009161;28;20022;-74
2023/12/24 05:46:14;;;;;;;3.03;0.80;;;;;;;8.58;100.00;100303.47;5002956;28;20405;-73
2023/12/24 05:48:41;;;;;;;7.28;4.32;;;;;;;8.63;100.00;100313.38;5013320;28;20101;-75
2023/12/24 05:51:06;;;;;;;4.45;3.40;;;;;;;8.69;100.00;100311.94;5011017;28;20042;-74
2023/12/24 05:53:32;;;;;;;3.78;2.90;;;;;;;8.69;100.00;100304.19;5012280;28;20025;-74
2023/12/24 05:55:57;;;;;;;2.45;1.80;;;;;;;8.59;100.00;100309.47;5012407;28;20555;-74
2023/12/24 05:58:22;;;;;;;1.27;0.93;;;;;;;8.66;100.00;100304.47;5008954;28;20432;-74
2023/12/24 06:00:48;;;;;;;1.67;1.30;;;;;;;8.58;100.00;100307.84;5012321;28;20033;-74
2023/12/24 06:03:13;;;;;;;4.38;2.55;;;;;;;8.66;100.00;100304.47;5013036;28;20434;-74
2023/12/24 06:05:39;;;;;;;12.23;6.60;;;;;;;8.67;100.00;100300.94;5009464;28;20044;-74
2023/12/24 06:08:05;;;;;;;2.83;1.80;;;;;;;8.63;100.00;100318.53;5010188;28;20040;-74
2023/12/24 06:10:30;;;;;;;3.78;2.15;;;;;;;8.65;100.00;100310.63;5015216;28;20117;-73
2023/12/24 06:12:56;;;;;;;6.07;3.65;;;;;;;8.65;100.00;100319.19;5009509;28;20404;-74
2023/12/24 06:15:21;;;;;;;4.70;2.50;;;;;;;8.65;100.00;100311.44;5012151;28;20460;-74
2023/12/24 06:17:47;;;;;;;5.85;2.80;;;;;;;8.65;100.00;100302.88;5014046;28;20026;-74
2023/12/24 06:20:12;;;;;;;4.53;2.22;;;;;;;8.66;100.00;100309.66;5010650;28;20607;-74
2023/12/24 06:22:38;;;;;;;4.70;1.50;;;;;;;8.69;100.00;100314.53;5011539;28;20080;-73
2023/12/24 06:25:03;;;;;;;1.40;1.10;;;;;;;8.63;100.00;100315.16;5005605;28;20045;-73
2023/12/24 06:27:29;;;;;;;2.72;1.83;;;;;;;8.71;100.00;100307.41;5010579;28;20112;-73
2023/12/24 06:29:54;;;;;;;1.95;1.70;;;;;;;8.74;100.00;100302.75;5012284;28;20041;-74
2023/12/24 06:32:20;;;;;;;5.00;3.28;;;;;;;8.66;100.00;100305.28;5012884;28;20037;-73
2023/12/24 06:34:46;;;;;;;1.77;1.40;;;;;;;8.67;100.00;100304.34;5012304;28;20089;-73
2023/12/24 06:37:11;;;;;;;2.85;1.52;;;;;;;8.69;100.00;100302.41;5013594;28;20029;-74
2023/12/24 06:39:37;;;;;;;2.20;1.45;;;;;;;8.76;100.00;100302.59;5015352;28;20045;-73
2023/12/24 06:42:03;;;;;;;6.18;3.88;;;;;;;8.69;100.00;100314.53;5009610;28;20033;-74
2023/12/24 06:44:28;;;;;;;1.02;0.75;;;;;;;8.69;100.00;100302.41;5011363;28;20091;-74
2023/12/24 06:46:53;;;;;;;1.15;1.02;;;;;;;8.79;100.00;100302.28;5014324;28;20022;-74
2023/12/24 06:49:19;;;;;;;0.77;0.68;;;;;;;8.80;100.00;100298.72;5009780;28;20026;-73
2023/12/24 06:51:45;;;;;;;1.10;1.00;;;;;;;8.70;100.00;100293.69;5013073;28;20037;-74
2023/12/24 06:54:10;;;;;;;1.55;1.05;;;;;;;8.79;100.00;100286.75;5014377;28;20401;-73
2023/12/24 06:56:36;;;;;;;1.25;0.90;;;;;;;8.74;100.00;100294.19;5004787;28;20543;-74
2023/12/24 06:59:02;;;;;;;3.47;1.60;;;;;;;8.83;100.00;100293.22;5018037;28;20029;-73
2023/12/24 07:01:28;;;;;;;2.67;1.42;;;;;;;8.87;100.00;100288.56;5012854;28;20124;-74
2023/12/24 07:03:54;;;;;;;0.77;0.65;;;;;;;8.85;100.00;100283.53;5008985;28;20121;-74
2023/12/24 07:06:20;;;;;;;1.08;0.70;;;;;;;8.85;100.00;100285.31;5005699;28;20087;-74
2023/12/24 07:08:45;;;;;;;1.52;0.95;;;;;;;8.84;100.00;100274.19;5010599;28;20026;-74
2023/12/24 07:11:11;;;;;;;1.67;1.17;;;;;;;8.84;100.00;100271.59;5011841;28;20042;-74
2023/12/24 07:13:37;;;;;;;0.88;0.70;;;;;;;8.91;100.00;100284.69;5014793;28;20045;-73
2023/12/24 07:16:02;;;;;;;1.27;0.95;;;;;;;8.85;100.00;100283.53;5009799;28;20038;-73
2023/12/24 07:18:28;;;;;;;1.60;1.10;;;;;;;8.83;100.00;100276.91;5012793;28;20025;-74
2023/12/24 07:20:53;;;;;;;2.97;1.23;;;;;;;8.90;100.00;100278.72;5013383;28;20030;-72
2023/12/24 07:23:19;;;;;;;1.98;1.10;;;;;;;8.88;100.00;100270.31;5017709;28;20048;-73
2023/12/24 07:25:44;;;;;;;27.23;10.90;;;;;;;8.86;100.00;100282.59;5009751;28;20401;-74
2023/12/24 07:28:10;;;;;;;10.43;5.35;;;;;;;8.88;100.00;100275.47;5006630;28;20481;-74
2023/12/24 07:30:35;;;;;;;2.55;1.55;;;;;;;8.97;100.00;100278.91;5014817;28;20033;-74
2023/12/24 07:33:01;;;;;;;2.35;1.13;;;;;;;8.97;100.00;100273.72;5013599;28;20059;-73
2023/12/24 07:35:26;;;;;;;2.83;2.53;;;;;;;9.03;100.00;100280.06;5013516;28;20037;-74
2023/12/24 07:37:51;;;;;;;4.38;2.80;;;;;;;8.96;100.00;100265.16;5014775;28;21528;-74
2023/12/24 07:40:18;;;;;;;2.08;1.88;;;;;;;9.05;100.00;100267.75;5012500;28;20061;-73
2023/12/24 07:42:44;;;;;;;1.67;1.42;;;;;;;8.98;100.00;100275.34;5006422;28;20033;-74
2023/12/24 07:45:10;;;;;;;1.55;1.30;;;;;;;9.00;100.00;100278.56;5009594;28;20092;-73
2023/12/24 07:47:35;;;;;;;2.75;2.08;;;;;;;9.03;100.00;100269.72;5009911;28;20416;-73
2023/12/24 07:50:00;;;;;;;4.00;1.05;;;;;;;9.02;100.00;100273.25;5011692;28;20037;-74
2023/12/24 07:52:26;;;;;;;1.00;0.70;;;;;;;8.95;100.00;100273.09;5010176;28;20026;-74
2023/12/24 07:54:51;;;;;;;2.17;1.10;;;;;;;9.06;100.00;100272.78;5010413;28;20042;-74
2023/12/24 07:57:17;;;;;;;3.28;1.00;;;;;;;8.99;100.00;100268.41;5010682;28;20033;-73
2023/12/24 07:59:42;;;;;;;1.10;0.73;;;;;;;9.04;100.00;100279.06;5011049;28;20042;-73
2023/12/24 08:02:08;;;;;;;0.70;0.70;;;;;;;9.01;100.00;100275.03;5007095;28;20040;-73
2023/12/24 08:04:34;;;;;;;1.88;1.40;;;;;;;9.03;100.00;100274.88;5011284;28;20400;-74
2023/12/24 08:06:59;;;;;;;1.48;0.80;;;;;;;9.04;100.00;100289.41;5010902;28;20033;-74
2023/12/24 08:09:26;;;;;;;0.80;0.77;;;;;;;8.99;100.00;100273.59;5012853;28;20033;-74
2023/12/24 08:11:51;;;;;;;0.93;0.80;;;;;;;8.99;100.00;100276.16;5014415;28;20030;-73
2023/12/24 08:14:17;;;;;;;1.10;0.70;;;;;;;9.05;100.00;100272.94;5012950;28;20501;-73
2023/12/24 08:16:42;;;;;;;0.80;0.50;;;;;;;9.04;100.00;100284.25;5017447;28;20435;-74
2023/12/24 08:19:08;;;;;;;1.45;0.68;;;;;;;9.04;100.00;100295.41;5014659;28;20030;-73
2023/12/24 08:21:33;;;;;;;2.92;0.60;;;;;;;9.03;100.00;100282.63;4993539;28;20045;-74
2023/12/24 08:23:59;;;;;;;2.35;0.60;;;;;;;9.06;100.00;100277.97;5014525;28;20053;-75
2023/12/24 08:26:26;;;;;;;1.00;0.60;;;;;;;9.02;100.00;100286.19;5010438;28;20034;-75
2023/12/24 08:28:51;;;;;;;1.10;0.50;;;;;;;8.98;100.00;100280.50;5014978;28;20030;-75
2023/12/24 08:31:17;;;;;;;1.33;0.55;;;;;;;9.04;100.00;100286.81;5012395;28;20030;-73
2023/12/24 08:33:43;;;;;;;0.70;0.45;;;;;;;9.08;100.00;100273.44;5011391;28;20029;-73
2023/12/24 08:36:10;;;;;;;1.75;0.50;;;;;;;9.03;100.00;100261.94;5009860;28;20100;-73
2023/12/24 08:38:35;;;;;;;0.98;0.52;;;;;;;9.05;100.00;100275.53;5002196;28;20370;-74
2023/12/24 08:41:01;;;;;;;1.25;0.70;;;;;;;9.05;100.00;100275.53;4993747;28;20084;-73
2023/12/24 08:43:27;;;;;;;0.60;0.50;;;;;;;9.02;100.00;100284.41;5015291;28;20034;-73
2023/12/24 08:45:52;;;;;;;1.65;0.40;;;;;;;9.11;100.00;100278.28;5009791;28;20053;-73
2023/12/24 08:48:18;;;;;;;0.50;0.35;;;;;;;9.05;100.00;100273.75;5009143;28;20033;-73
2023/12/24 08:50:44;;;;;;;0.57;0.30;;;;;;;9.10;100.00;100271.50;5013944;28;20033;-74
2023/12/24 08:53:09;;;;;;;0.85;0.30;;;;;;;9.05;100.00;100278.13;5006455;28;20032;-73
2023/12/24 08:55:35;;;;;;;0.60;0.40;;;;;;;9.09;100.00;100290.56;5012435;28;20575;-73
2023/12/24 08:58:00;;;;;;;1.75;0.55;;;;;;;9.10;100.00;100284.44;5008076;28;20056;-73
2023/12/24 09:00:26;;;;;;;1.40;0.40;;;;;;;9.06;100.00;100277.13;5014239;28;20042;-73
2023/12/24 09:02:51;;;;;;;4.45;0.90;;;;;;;9.05;100.00;100278.91;4998117;28;20030;-72
2023/12/24 09:05:19;;;;;;;1.25;0.40;;;;;;;9.13;100.00;100289.25;5010238;28;20033;-74
2023/12/24 09:07:45;;;;;;;0.80;0.60;;;;;;;9.04;100.00;100269.56;5010004;28;20041;-74
2023/12/24 09:10:11;;;;;;;4.60;1.42;;;;;;;9.04;100.00;100284.25;5011142;28;20033;-74
2023/12/24 09:12:37;;;;;;;18.33;6.15;;;;;;;9.10;100.00;100271.50;5016347;28;20030;-73
2023/12/24 09:15:03;;;;;;;37.05;12.65;;;;;;;9.11;100.00;100283.44;5012072;28;20046;-73
2023/12/24 09:17:29;;;;;;;2.63;1.88;;;;;;;9.09;100.00;100275.03;5020968;28;20029;-73
2023/12/24 09:19:54;;;;;;;5.03;3.15;;;;;;;9.11;100.00;100273.09;5011690;28;20045;-73
2023/12/24 09:22:20;;;;;;;1.70;0.52;;;;;;;9.15;100.00;100284.78;5014965;28;20030;-74
2023/12/24 09:24:45;;;;;;;1.50;0.85;;;;;;;9.26;100.00;100262.13;5013595;28;20034;-74
2023/12/24 09:27:10;;;;;;;1.30;1.00;;;;;;;9.23;100.00;100268.44;5014505;28;20052;-74
2023/12/24 09:29:36;;;;;;;0.85;0.77;;;;;;;9.29;100.00;100277.34;5013800;28;20049;-73
2023/12/24 09:32:01;;;;;;;0.65;0.60;;;;;;;9.28;100.00;100275.72;5003903;28;20037;-73
2023/12/24 09:34:27;;;;;;;1.27;0.60;;;;;;;9.29;100.00;100277.34;5012100;28;20516;-73
2023/12/24 09:36:52;;;;;;;3.20;0.50;;;;;;;9.30;100.00;100278.94;5011546;28;20276;-73
2023/12/24 09:39:18;;;;;;;2.78;1.00;;;;;;;9.33;100.00;100292.38;5011387;28;20497;-73
2023/12/24 09:41:43;;;;;;;0.85;0.70;;;;;;;9.35;100.00;100284.47;5002830;28;20473;-74
2023/12/24 09:44:09;;;;;;;0.57;0.55;;;;;;;9.41;100.00;100278.63;5010527;28;20439;-73
2023/12/24 09:46:34;;;;;;;0.90;0.80;;;;;;;9.39;100.00;100287.53;5008834;28;20037;-73
2023/12/24 09:49:00;;;;;;;2.03;0.82;;;;;;;9.40;100.00;100291.72;5010295;28;20038;-73
2023/12/24 09:51:26;;;;;;;1.48;0.98;;;;;;;9.46;100.00;100293.69;5013279;28;20489;-74
2023/12/24 09:53:54;;;;;;;0.85;0.70;;;;;;;9.42;100.00;100295.78;5011813;28;20080;-74
2023/12/24 09:56:19;;;;;;;2.60;0.98;;;;;;;9.44;100.00;100283.50;5009492;28;20030;-73
2023/12/24 09:58:48;;;;;;;1.65;0.98;;;;;;;9.42;100.00;100271.69;5002078;28;20033;-73
2023/12/24 10:01:13;;;;;;;1.50;0.80;;;;;;;9.41;100.00;100286.41;5012741;28;20561;-73
2023/12/24 10:03:39;;;;;;;1.88;1.35;;;;;;;9.42;100.00;100264.75;5016564;28;20037;-74
2023/12/24 10:06:07;;;;;;;2.03;1.38;;;;;;;9.49;100.00;100272.66;4995397;28;20453;-74
2023/12/24 10:08:38;;;;;;;7.03;1.90;;;;;;;9.60;100.00;100271.53;5004801;28;20034;-74
2023/12/24 10:11:17;;;;;;;3.13;1.60;;;;;;;9.61;100.00;100262.81;4997746;28;20128;-75
2023/12/24 10:13:44;;;;;;;2.88;1.08;;;;;;;9.58;100.00;100268.31;5017211;28;20114;-74
2023/12/24 10:16:09;;;;;;;2.33;1.60;;;;;;;9.66;100.00;100260.53;5011286;28;20038;-73
2023/12/24 10:18:35;;;;;;;1.08;0.60;;;;;;;9.66;100.00;100250.16;5009228;28;20092;-73
2023/12/24 10:21:08;;;;;;;2.17;0.90;;;;;;;9.70;100.00;100248.84;5006983;28;20037;-73
2023/12/24 10:23:33;;;;;;;1.55;0.65;;;;;;;9.75;100.00;100249.19;5012666;28;20087;-73
2023/12/24 10:26:08;;;;;;;2.45;0.50;;;;;;;9.69;100.00;100258.41;4992942;28;20046;-74
2023/12/24 10:28:44;;;;;;;2.17;0.80;;;;;;;9.78;100.00;100251.47;5011359;28;20120;-73
2023/12/24 10:31:10;;;;;;;2.40;0.70;;;;;;;9.79;100.00;100271.19;5019142;28;20094;-73
2023/12/24 10:33:39;;;;;;;1.50;0.60;;;;;;;9.78;100.00;100263.59;5014343;28;20029;-72
2023/12/24 10:36:06;;;;;;;0.77;0.50;;;;;;;9.79;100.00;100242.69;5010214;28;20062;-73
2023/12/24 10:38:34;;;;;;;1.58;0.63;;;;;;;9.77;100.00;100241.25;5006729;28;20036;-73
2023/12/24 10:41:01;;;;;;;1.70;0.80;;;;;;;9.80;100.00;100222.81;5009066;28;20041;-73
2023/12/24 10:43:26;;;;;;;3.38;0.80;;;;;;;9.80;100.00;100241.75;5019210;28;20047;-74
2023/12/24 10:45:52;;;;;;;2.80;0.65;;;;;;;9.80;100.00;100252.09;5013256;28;20038;-73
2023/12/24 10:48:19;;;;;;;3.63;1.25;;;;;;;9.84;100.00;100242.22;5008856;28;20044;-73
2023/12/24 10:50:45;;;;;;;3.97;2.03;;;;;;;9.83;100.00;100230.25;5019206;28;20037;-73
2023/12/24 10:53:11;;;;;;;7.22;3.35;;;;;;;9.72;100.00;100234.81;5010138;28;20042;-73
2023/12/24 10:55:39;;;;;;;2.42;1.67;;;;;;;9.75;100.00;100231.88;5012147;28;20042;-73
2023/12/24 10:58:40;;;;;;;2.72;1.50;;;;;;;9.80;100.00;100244.34;4991316;28;20026;-73
2023/12/24 11:01:09;;;;;;;2.92;1.83;;;;;;;9.83;100.00;100220.72;5013522;28;20133;-73
2023/12/24 11:03:51;;;;;;;3.50;1.08;;;;;;;9.83;100.00;100228.47;5009326;28;20365;-73
2023/12/24 11:06:35;;;;;;;3.00;1.67;;;;;;;9.82;100.00;100216.50;5008864;28;20054;-74
2023/12/24 11:09:04;;;;;;;3.45;1.20;;;;;;;9.79;100.00;100219.41;5009611;28;20030;-73
2023/12/24 11:11:52;;;;;;;1.25;1.10;;;;;;;9.87;100.00;100221.16;5009705;28;20092;-74
2023/12/24 11:14:36;;;;;;;2.80;1.20;;;;;;;9.87;100.00;100242.72;5012162;28;20122;-73
2023/12/24 11:17:02;;;;;;;2.67;1.02;;;;;;;9.91;100.00;100233.63;4992523;28;20413;-74
2023/12/24 11:19:28;;;;;;;4.35;1.10;;;;;;;9.89;100.00;100229.59;5018490;28;20140;-74
2023/12/24 11:22:07;;;;;;;5.50;1.45;;;;;;;9.92;100.00;100211.91;5008889;28;20108;-73